Time;durP1;ratioP1;P1;durP2;ratioP2;P2;SDS_P1;SDS_P2;PMS_P1;PMS_P2;Temp;Humidity;BMP_temperature;BMP_pressure;BME280_temperature;BME280_humidity;BME280_pressure;Samples;Min_cycle;Max_cycle;Signal;HPM_P1;HPM_P2
2023/03/13 00:00:11;;;;;;;9.88;2.17;;;;;;;7.78;100.00;98303.41;4936345;28;20135;-80
2023/03/13 00:02:36;;;;;;;10.98;2.97;;;;;;;7.65;100.00;98299.63;4938022;29;20050;-82
2023/03/13 00:05:02;;;;;;;12.88;2.60;;;;;;;7.67;100.00;98313.69;4931839;28;20023;-80
2023/03/13 00:07:27;;;;;;;7.10;1.65;;;;;;;7.33;100.00;98278.69;4938077;29;20023;-83
2023/03/13 00:09:53;;;;;;;11.13;2.28;;;;;;;7.43;100.00;98295.31;4964944;28;20058;-81
2023/03/13 00:12:18;;;;;;;8.80;1.35;;;;;;;7.50;100.00;98303.44;4939377;29;20024;-83
2023/03/13 00:14:44;;;;;;;8.98;1.95;;;;;;;7.35;100.00;98277.44;4944895;28;20034;-82
2023/03/13 00:17:09;;;;;;;8.32;2.30;;;;;;;7.45;100.00;98277.94;4943533;29;20034;-82
2023/03/13 00:19:34;;;;;;;11.90;2.55;;;;;;;7.55;100.00;98301.84;4972024;28;20032;-80
2023/03/13 00:22:00;;;;;;;9.25;2.20;;;;;;;7.30;100.00;98253.00;4946209;29;20032;-83
2023/03/13 00:24:25;;;;;;;11.48;2.33;;;;;;;7.56;100.00;98279.25;4944843;28;20465;-80
2023/03/13 00:26:50;;;;;;;8.25;1.83;;;;;;;7.53;100.00;98251.91;4944479;28;20095;-80
2023/03/13 00:29:16;;;;;;;11.15;2.40;;;;;;;7.64;100.00;98278.28;4945381;28;20016;-81
2023/03/13 00:31:41;;;;;;;13.65;2.17;;;;;;;7.78;100.00;98292.63;4950484;28;20496;-81
2023/03/13 00:34:06;;;;;;;9.52;1.80;;;;;;;7.80;100.00;98269.03;4945715;29;20019;-85
2023/03/13 00:36:34;;;;;;;9.93;1.95;;;;;;;7.95;100.00;98269.75;4945903;28;20476;-80
2023/03/13 00:38:59;;;;;;;6.93;1.73;;;;;;;8.10;100.00;98259.69;4942407;28;20034;-81
2023/03/13 00:41:28;;;;;;;13.82;1.90;;;;;;;8.11;100.00;98255.94;4947019;28;20027;-82
2023/03/13 00:43:54;;;;;;;11.38;2.05;;;;;;;8.30;100.00;98261.59;4954260;28;20043;-81
2023/03/13 00:46:21;;;;;;;8.95;1.50;;;;;;;8.36;100.00;98258.13;4945453;28;20444;-83
2023/03/13 00:48:47;;;;;;;14.57;2.33;;;;;;;8.43;100.00;98248.19;4946922;29;20032;-82
2023/03/13 00:51:14;;;;;;;7.25;1.63;;;;;;;8.51;100.00;98258.81;4947291;29;20083;-82
2023/03/13 00:53:41;;;;;;;8.77;1.70;;;;;;;8.58;100.00;98245.34;4946774;28;20031;-81
2023/03/13 00:56:14;;;;;;;11.80;2.00;;;;;;;8.44;100.00;98212.13;4956743;28;20032;-81
2023/03/13 00:58:42;;;;;;;15.40;2.67;;;;;;;8.59;100.00;98235.38;4945333;28;20028;-82
2023/03/13 01:01:12;;;;;;;12.30;2.05;;;;;;;8.66;100.00;98236.22;4946220;29;20032;-82
2023/03/13 01:03:39;;;;;;;15.05;2.10;;;;;;;8.64;100.00;98224.81;4944444;29;20044;-82
2023/03/13 01:06:07;;;;;;;8.50;1.60;;;;;;;8.86;100.00;98228.16;4963097;28;20040;-81
2023/03/13 01:08:34;;;;;;;18.02;1.88;;;;;;;8.81;100.00;98211.78;4949584;29;20046;-82
2023/03/13 01:11:04;;;;;;;8.70;1.75;;;;;;;9.06;100.00;98228.16;4946067;28;20024;-80
2023/03/13 01:13:34;;;;;;;5.55;1.38;;;;;;;9.09;100.00;98219.63;5031653;23;20104;-62
2023/03/13 01:16:26;;;;;;;10.82;1.52;;;;;;;8.90;100.00;98178.16;4959210;28;20038;-64
2023/03/13 01:18:56;;;;;;;7.03;1.58;;;;;;;9.15;100.00;98211.56;4961321;28;20043;-63
2023/03/13 01:21:23;;;;;;;12.60;1.98;;;;;;;9.25;100.00;98207.59;4950008;28;20023;-63
2023/03/13 01:23:50;;;;;;;6.97;1.70;;;;;;;9.24;100.00;98205.94;4951562;29;20023;-63
2023/03/13 01:26:15;;;;;;;9.38;1.80;;;;;;;9.21;100.00;98196.41;4947531;28;20549;-63
2023/03/13 01:28:41;;;;;;;10.07;1.80;;;;;;;9.19;100.00;98199.28;4949054;28;20157;-63
2023/03/13 01:31:17;;;;;;;9.27;1.95;;;;;;;9.13;100.00;98188.50;4947943;28;20059;-63
2023/03/13 01:33:44;;;;;;;14.05;2.15;;;;;;;9.16;100.00;98198.88;4950054;29;20019;-63
2023/03/13 01:36:10;;;;;;;14.55;1.75;;;;;;;9.16;100.00;98182.69;4948072;29;20382;-63
2023/03/13 01:38:37;;;;;;;12.63;1.80;;;;;;;9.26;100.00;98183.09;4951837;29;20486;-63
2023/03/13 01:41:04;;;;;;;15.68;2.22;;;;;;;9.35;100.00;98179.16;4957545;28;20031;-63
2023/03/13 01:43:32;;;;;;;10.57;1.90;;;;;;;9.28;100.00;98169.41;4951715;28;20065;-63
2023/03/13 01:46:02;;;;;;;5.05;1.20;;;;;;;9.44;100.00;98166.25;4948563;28;20464;-64
2023/03/13 01:48:34;;;;;;;9.30;1.77;;;;;;;9.48;100.00;98159.38;4944511;28;20028;-63
2023/03/13 01:51:03;;;;;;;6.22;1.52;;;;;;;9.57;100.00;98157.28;4951488;29;20035;-63
2023/03/13 01:53:30;;;;;;;;;;;;;;;9.55;100.00;98151.25;4952755;29;20493;-63
2023/03/13 01:55:58;;;;;;;10.10;1.50;;;;;;;9.55;100.00;98152.06;4943515;28;19915;-63
2023/03/13 01:58:25;;;;;;;11.00;1.65;;;;;;;9.49;100.00;98152.13;4946836;28;20031;-63
2023/03/13 02:00:50;;;;;;;13.40;1.58;;;;;;;9.48;100.00;98139.63;4942562;29;20030;-63
2023/03/13 02:03:20;;;;;;;11.13;1.58;;;;;;;9.52;100.00;98139.00;4952328;29;20027;-63
2023/03/13 02:05:47;;;;;;;8.05;1.40;;;;;;;9.48;100.00;98126.13;4966606;28;20498;-63
2023/03/13 02:08:53;;;;;;;6.82;1.67;;;;;;;9.52;100.00;98117.41;4944267;28;20592;-63
2023/03/13 02:11:41;;;;;;;7.55;1.77;;;;;;;9.53;100.00;98121.75;4954465;28;20027;-63
2023/03/13 02:14:07;;;;;;;13.37;1.90;;;;;;;9.51;100.00;98126.56;4937678;28;20031;-63
2023/03/13 02:16:34;;;;;;;5.45;1.25;;;;;;;9.58;100.00;98110.31;4950086;28;20034;-63
2023/03/13 02:19:05;;;;;;;8.60;1.75;;;;;;;9.63;100.00;98115.91;4950096;29;20029;-63
2023/03/13 02:22:06;;;;;;;7.53;1.52;;;;;;;9.64;100.00;98112.16;4943391;28;20035;-63
2023/03/13 02:24:40;;;;;;;5.82;1.38;;;;;;;9.61;100.00;98120.69;4949119;28;20023;-63
2023/03/13 02:27:06;;;;;;;10.48;1.60;;;;;;;9.57;100.00;98111.38;4951411;28;20031;-63
2023/03/13 02:29:32;;;;;;;9.50;1.70;;;;;;;9.57;100.00;98098.69;4955935;28;20164;-63
2023/03/13 02:31:57;;;;;;;9.35;1.70;;;;;;;9.54;100.00;98104.53;4946469;28;20065;-63
2023/03/13 02:34:31;;;;;;;6.28;1.75;;;;;;;9.50;100.00;98097.88;4948255;29;20475;-63
2023/03/13 02:36:58;;;;;;;10.05;1.45;;;;;;;9.45;100.00;98095.00;4966249;28;20039;-63
2023/03/13 02:39:25;;;;;;;5.30;1.60;;;;;;;9.49;100.00;98096.25;4948429;28;20126;-63
2023/03/13 02:41:52;;;;;;;4.88;1.13;;;;;;;9.51;100.00;98096.00;4951030;28;20446;-63
2023/03/13 02:44:17;;;;;;;9.98;2.25;;;;;;;9.52;100.00;98089.59;4951579;29;20030;-63
2023/03/13 02:46:53;;;;;;;7.60;1.17;;;;;;;9.53;100.00;98081.25;4948329;28;20390;-63
2023/03/13 02:49:21;;;;;;;5.35;1.58;;;;;;;9.47;100.00;98070.50;4961438;28;20118;-63
2023/03/13 02:51:47;;;;;;;6.13;1.17;;;;;;;9.44;100.00;98072.56;4946353;28;20035;-63
2023/03/13 02:54:22;;;;;;;6.10;1.33;;;;;;;9.41;100.00;98064.91;4953370;28;20043;-63
2023/03/13 02:56:53;;;;;;;7.40;1.50;;;;;;;9.42;100.00;98061.16;4946397;29;20027;-64
2023/03/13 02:59:19;;;;;;;5.03;0.82;;;;;;;9.51;100.00;98066.31;4947812;29;20074;-63
2023/03/13 03:01:44;;;;;;;6.20;1.67;;;;;;;9.58;100.00;98049.03;4942259;29;20124;-63
2023/03/13 03:04:10;;;;;;;7.07;1.25;;;;;;;9.52;100.00;98032.88;4951118;29;20027;-63
2023/03/13 03:06:36;;;;;;;6.22;1.63;;;;;;;9.51;100.00;98045.56;4946914;28;20433;-63
2023/03/13 03:09:02;;;;;;;2.72;1.10;;;;;;;9.42;100.00;98036.84;4946116;28;20679;-63
2023/03/13 03:11:27;;;;;;;5.20;1.05;;;;;;;9.35;100.00;98037.91;4950476;29;20110;-63
2023/03/13 03:13:53;;;;;;;9.27;1.50;;;;;;;9.39;100.00;98039.97;4960339;28;20129;-63
2023/03/13 03:16:19;;;;;;;4.22;0.80;;;;;;;9.48;100.00;98037.84;4944783;28;20118;-63
2023/03/13 03:18:46;;;;;;;6.45;0.98;;;;;;;9.56;100.00;98036.78;4943167;28;20096;-63
2023/03/13 03:21:11;;;;;;;7.93;0.98;;;;;;;9.56;100.00;98043.03;4950423;28;20023;-63
2023/03/13 03:23:37;;;;;;;7.53;0.90;;;;;;;9.38;100.00;98034.81;4947911;28;20034;-63
2023/03/13 03:26:05;;;;;;;3.53;0.80;;;;;;;9.26;100.00;98048.13;4952694;28;20031;-63
2023/03/13 03:28:30;;;;;;;4.18;1.30;;;;;;;9.31;100.00;98039.41;4948370;28;20467;-63
2023/03/13 03:30:56;;;;;;;4.88;1.02;;;;;;;9.21;100.00;98031.75;4947349;28;20110;-63
2023/03/13 03:33:22;;;;;;;9.40;1.10;;;;;;;9.11;100.00;98039.47;4952608;28;20483;-63
2023/03/13 03:35:48;;;;;;;4.43;1.23;;;;;;;8.97;100.00;98044.09;4954156;28;20085;-64
2023/03/13 03:38:17;;;;;;;5.57;1.40;;;;;;;8.83;100.00;98043.28;4957827;28;20070;-63
2023/03/13 03:40:42;;;;;;;3.93;1.23;;;;;;;8.83;100.00;98032.50;4947506;28;20023;-63
2023/03/13 03:43:08;;;;;;;3.33;1.00;;;;;;;8.70;100.00;98030.66;4953337;29;20366;-62
2023/03/13 03:45:33;;;;;;;9.85;1.00;;;;;;;8.66;100.00;98025.91;4953648;28;20024;-63
2023/03/13 03:47:58;;;;;;;3.30;0.88;;;;;;;8.67;100.00;98025.69;4953291;29;20053;-63
2023/03/13 03:50:25;;;;;;;2.22;0.57;;;;;;;8.77;100.00;98020.66;4957719;28;20019;-63
2023/03/13 03:52:50;;;;;;;5.13;1.17;;;;;;;8.80;100.00;98011.31;4950227;28;20033;-63
2023/03/13 03:55:17;;;;;;;5.53;0.90;;;;;;;8.90;100.00;98022.50;4950676;28;20031;-63
2023/03/13 03:57:43;;;;;;;6.60;0.90;;;;;;;8.97;100.00;98011.72;4952907;29;20034;-62
2023/03/13 04:00:10;;;;;;;2.95;0.95;;;;;;;9.06;100.00;98017.69;4951895;28;20026;-63
2023/03/13 04:02:36;;;;;;;6.85;1.10;;;;;;;9.17;100.00;98006.25;4947843;28;20382;-62
2023/03/13 04:05:03;;;;;;;3.55;1.23;;;;;;;9.11;100.00;97997.13;4945965;28;20114;-62
2023/03/13 04:07:28;;;;;;;7.30;1.08;;;;;;;9.12;100.00;98000.66;4961434;28;20368;-62
2023/03/13 04:09:54;;;;;;;4.93;0.95;;;;;;;9.20;100.00;97989.63;4936629;28;20058;-63
2023/03/13 04:12:19;;;;;;;7.07;1.05;;;;;;;9.28;100.00;97988.56;4946135;28;20142;-63
2023/03/13 04:14:44;;;;;;;7.90;0.95;;;;;;;9.44;100.00;97991.56;4940599;28;20027;-63
2023/03/13 04:17:10;;;;;;;3.05;0.68;;;;;;;9.60;100.00;97989.41;4948601;28;20035;-67
2023/03/13 04:19:35;;;;;;;3.38;0.75;;;;;;;9.66;100.00;97978.56;4943260;28;20034;-64
2023/03/13 04:22:01;;;;;;;4.88;0.80;;;;;;;9.67;100.00;97984.81;4953641;29;20062;-63
2023/03/13 04:24:26;;;;;;;4.65;0.90;;;;;;;9.66;100.00;97978.56;4955091;29;20027;-63
2023/03/13 04:26:52;;;;;;;6.60;1.00;;;;;;;9.63;100.00;97978.16;4952946;28;20027;-63
2023/03/13 04:29:17;;;;;;;4.28;0.90;;;;;;;9.67;100.00;97971.31;4941598;28;20027;-63
2023/03/13 04:31:42;;;;;;;6.15;0.80;;;;;;;9.66;100.00;97973.16;4939421;28;20118;-63
2023/03/13 04:34:08;;;;;;;3.47;1.05;;;;;;;9.76;100.00;97972.69;4950781;28;20036;-63
2023/03/13 04:36:33;;;;;;;4.40;1.08;;;;;;;9.81;100.00;97980.97;4948003;28;20076;-63
2023/03/13 04:38:59;;;;;;;3.47;0.88;;;;;;;9.94;100.00;97973.81;4951166;29;20039;-63
2023/03/13 04:41:24;;;;;;;5.75;1.00;;;;;;;9.93;100.00;97967.59;4951806;28;20034;-63
2023/03/13 04:43:49;;;;;;;4.13;0.80;;;;;;;10.02;100.00;97973.53;4952655;28;20067;-63
2023/03/13 04:46:15;;;;;;;4.60;0.50;;;;;;;10.05;100.00;97970.38;4945654;28;20019;-63
2023/03/13 04:48:40;;;;;;;5.25;0.88;;;;;;;10.03;100.00;97978.72;4946982;28;20063;-63
2023/03/13 04:51:06;;;;;;;6.07;0.80;;;;;;;10.03;100.00;97965.22;4943910;29;20019;-63
2023/03/13 04:53:31;;;;;;;2.42;0.80;;;;;;;10.08;100.00;97972.66;4970094;28;20475;-63
2023/03/13 04:55:56;;;;;;;2.13;0.52;;;;;;;10.08;100.00;97978.88;4951765;28;20055;-64
2023/03/13 04:58:22;;;;;;;3.70;0.93;;;;;;;10.08;100.00;97978.03;4949543;29;20027;-63
2023/03/13 05:00:47;;;;;;;3.17;0.82;;;;;;;10.09;100.00;97967.03;4938452;28;20023;-63
2023/03/13 05:03:13;;;;;;;1.13;0.45;;;;;;;10.10;100.00;97979.47;4942901;28;20036;-64
2023/03/13 05:05:38;;;;;;;4.22;0.60;;;;;;;10.09;100.00;97960.81;4948870;29;20097;-64
2023/03/13 05:08:04;;;;;;;6.50;0.65;;;;;;;10.09;100.00;97969.72;4947059;28;20106;-64
2023/03/13 05:10:30;;;;;;;3.75;0.95;;;;;;;10.07;100.00;97962.88;4951368;28;20058;-63
2023/03/13 05:12:55;;;;;;;4.50;0.63;;;;;;;10.08;100.00;97956.44;4952566;29;20023;-63
2023/03/13 05:15:21;;;;;;;1.33;0.55;;;;;;;10.05;100.00;97968.50;4963231;28;20029;-64
2023/03/13 05:17:46;;;;;;;1.63;0.50;;;;;;;9.98;100.00;97964.19;4948678;28;20554;-64
2023/03/13 05:20:12;;;;;;;5.07;0.85;;;;;;;9.86;100.00;97956.00;4947289;29;20119;-63
2023/03/13 05:22:37;;;;;;;3.42;0.93;;;;;;;9.80;100.00;97963.09;4945320;29;20034;-63
2023/03/13 05:25:04;;;;;;;6.40;0.68;;;;;;;9.79;100.00;97950.63;4952468;28;20055;-63
2023/03/13 05:27:30;;;;;;;2.83;0.65;;;;;;;9.86;100.00;97959.50;4952425;28;20118;-64
2023/03/13 05:29:55;;;;;;;2.70;1.00;;;;;;;9.92;100.00;97959.69;4945091;29;20422;-63
2023/03/13 05:32:21;;;;;;;3.75;0.80;;;;;;;10.00;100.00;97962.09;4945610;28;20035;-64
2023/03/13 05:34:46;;;;;;;2.40;0.85;;;;;;;10.01;100.00;97955.69;4949116;28;20027;-63
2023/03/13 05:37:12;;;;;;;4.00;0.60;;;;;;;10.07;100.00;97946.69;4944836;28;20455;-64
2023/03/13 05:39:37;;;;;;;3.78;0.70;;;;;;;10.27;100.00;97947.38;4943671;28;20035;-64
2023/03/13 05:42:03;;;;;;;0.85;0.30;;;;;;;10.47;100.00;97946.31;4950449;29;20073;-64
2023/03/13 05:44:28;;;;;;;1.63;0.40;;;;;;;10.62;100.00;97954.91;4950738;28;20058;-63
2023/03/13 05:46:53;;;;;;;1.80;0.50;;;;;;;10.73;100.00;97958.75;4941388;28;20028;-63
2023/03/13 05:49:22;;;;;;;1.15;0.40;;;;;;;10.89;100.00;97949.19;4950125;29;20058;-63
2023/03/13 05:51:47;;;;;;;6.83;0.30;;;;;;;10.95;100.00;97937.44;4941400;28;20423;-65
2023/03/13 05:54:13;;;;;;;2.50;0.43;;;;;;;10.97;100.00;97935.34;4949906;29;20031;-63
2023/03/13 05:56:38;;;;;;;2.92;0.47;;;;;;;10.88;100.00;97944.84;4948715;29;20576;-64
2023/03/13 05:59:04;;;;;;;0.70;0.30;;;;;;;10.78;100.00;97947.25;4943206;28;20470;-63
2023/03/13 06:01:30;;;;;;;1.95;0.40;;;;;;;10.73;100.00;97940.63;4946546;28;20452;-63
2023/03/13 06:03:55;;;;;;;1.55;0.38;;;;;;;10.77;100.00;97946.44;4949901;29;20110;-63
2023/03/13 06:06:21;;;;;;;0.65;0.25;;;;;;;10.77;100.00;97937.47;4950147;29;20030;-63
2023/03/13 06:08:46;;;;;;;2.10;0.30;;;;;;;10.82;100.00;97940.31;4948722;28;20031;-63
2023/03/13 06:11:12;;;;;;;0.47;0.32;;;;;;;10.86;100.00;97946.94;4940614;29;20016;-63
2023/03/13 06:13:37;;;;;;;0.73;0.40;;;;;;;10.92;100.00;97949.56;4947475;28;20035;-63
2023/03/13 06:16:03;;;;;;;1.58;0.40;;;;;;;10.95;100.00;97927.47;4943032;28;20023;-63
2023/03/13 06:18:28;;;;;;;0.90;0.40;;;;;;;11.07;100.00;97940.25;4945575;29;20030;-64
2023/03/13 06:20:59;;;;;;;1.08;0.30;;;;;;;11.11;100.00;97928.72;4939099;29;20052;-64
2023/03/13 06:23:24;;;;;;;3.50;0.35;;;;;;;11.16;100.00;97928.03;4951602;29;20503;-64
2023/03/13 06:25:50;;;;;;;0.77;0.38;;;;;;;11.24;100.00;97935.00;4949791;28;20066;-57
2023/03/13 06:28:15;;;;;;;1.42;0.57;;;;;;;11.21;100.00;97903.81;4948686;28;20051;-58
2023/03/13 06:30:41;;;;;;;0.73;0.43;;;;;;;11.36;100.00;97934.00;4945037;28;20027;-57
2023/03/13 06:33:07;;;;;;;0.90;0.20;;;;;;;11.42;100.00;97929.53;4950540;29;20058;-58
2023/03/13 06:35:33;;;;;;;1.70;0.38;;;;;;;11.48;100.00;97917.81;4948715;29;20022;-57
2023/03/13 06:37:58;;;;;;;0.57;0.15;;;;;;;11.53;100.00;97923.38;4945874;28;20031;-57
2023/03/13 06:40:24;;;;;;;1.63;0.47;;;;;;;11.59;100.00;97927.03;4942839;28;20024;-57
2023/03/13 06:42:49;;;;;;;1.02;0.40;;;;;;;11.65;100.00;97927.97;4958102;28;20031;-57
2023/03/13 06:45:14;;;;;;;1.13;0.40;;;;;;;11.59;100.00;97941.38;4950227;29;20035;-57
2023/03/13 06:47:40;;;;;;;1.50;0.40;;;;;;;11.59;100.00;97937.84;4945179;28;20041;-57
2023/03/13 06:50:06;;;;;;;1.08;0.30;;;;;;;11.54;100.00;97935.84;4974236;28;20119;-57
2023/03/13 06:52:32;;;;;;;1.27;0.40;;;;;;;11.53;100.00;97950.44;4948156;29;20457;-57
2023/03/13 06:54:57;;;;;;;2.53;0.32;;;;;;;11.55;100.00;97934.81;4949337;28;20067;-57
2023/03/13 06:57:22;;;;;;;3.65;0.40;;;;;;;11.54;100.00;97935.84;4950545;29;20447;-57
2023/03/13 06:59:48;;;;;;;3.10;0.30;;;;;;;11.58;100.00;97939.75;4942654;28;20024;-58
2023/03/13 07:02:14;;;;;;;1.05;0.40;;;;;;;11.61;100.00;97952.81;4948992;28;20039;-58
2023/03/13 07:04:40;;;;;;;0.95;0.30;;;;;;;11.65;100.00;97946.94;4947776;28;20110;-58
2023/03/13 07:07:05;;;;;;;1.67;0.40;;;;;;;11.71;100.00;97951.44;4949924;28;20131;-58
2023/03/13 07:09:31;;;;;;;0.40;0.20;;;;;;;11.73;100.00;97946.59;4947702;28;20019;-58
2023/03/13 07:11:57;;;;;;;0.30;0.17;;;;;;;11.70;100.00;97955.19;4946055;29;20040;-58
2023/03/13 07:14:23;;;;;;;2.65;0.60;;;;;;;11.71;100.00;97951.44;4954093;28;20390;-58
2023/03/13 07:16:48;;;;;;;0.60;0.30;;;;;;;11.74;100.00;97957.22;4949301;28;20031;-58
2023/03/13 07:19:15;;;;;;;0.10;0.10;;;;;;;11.79;100.00;97951.13;4945118;29;20359;-58
2023/03/13 07:21:40;;;;;;;1.25;0.20;;;;;;;11.76;100.00;97954.28;5019131;22;20401;-74
2023/03/13 07:24:06;;;;;;;0.98;0.30;;;;;;;11.64;100.00;97951.53;5047228;28;20024;-76
2023/03/13 07:26:31;;;;;;;0.88;0.20;;;;;;;11.56;100.00;97947.28;5052400;28;20029;-76
2023/03/13 07:29:09;;;;;;;0.20;0.20;;;;;;;11.56;100.00;97939.16;5045637;28;20017;-81
2023/03/13 07:32:06;;;;;;;0.52;0.25;;;;;;;11.58;100.00;97942.47;5063606;28;20026;-81
2023/03/13 07:34:31;;;;;;;0.90;0.52;;;;;;;11.36;100.00;97928.59;5048245;28;20025;-77
2023/03/13 07:36:56;;;;;;;0.52;0.30;;;;;;;11.29;100.00;97930.59;5050220;28;20033;-77
2023/03/13 07:39:22;;;;;;;2.63;0.30;;;;;;;11.17;100.00;97925.09;5048898;28;20021;-77
2023/03/13 07:41:47;;;;;;;1.50;0.30;;;;;;;11.22;100.00;97919.00;5030262;28;20544;-76
2023/03/13 07:44:12;;;;;;;0.82;0.45;;;;;;;11.35;100.00;97926.94;5037495;28;20120;-80
2023/03/13 07:46:38;;;;;;;2.25;0.20;;;;;;;11.42;100.00;97905.16;5029405;28;20045;-79
2023/03/13 07:49:03;;;;;;;1.50;0.40;;;;;;;11.50;100.00;97910.28;5037571;28;20018;-78
2023/03/13 07:51:29;;;;;;;0.73;0.30;;;;;;;11.63;100.00;97901.94;5039330;28;20029;-78
2023/03/13 07:53:54;;;;;;;1.55;0.30;;;;;;;11.67;100.00;97894.16;5041052;28;20057;-78
2023/03/13 07:56:22;;;;;;;0.65;0.20;;;;;;;11.76;100.00;97903.63;5033698;28;20154;-77
2023/03/13 07:58:48;;;;;;;1.30;0.30;;;;;;;11.71;100.00;97883.69;5050791;28;20430;-78
2023/03/13 08:01:17;;;;;;;3.80;0.57;;;;;;;11.92;100.00;97907.56;5033775;28;20025;-79
2023/03/13 08:03:44;;;;;;;1.83;0.38;;;;;;;11.96;100.00;97899.78;5036625;28;20045;-78
2023/03/13 08:06:12;;;;;;;1.98;0.40;;;;;;;12.14;100.00;97913.22;5033785;28;20033;-75
2023/03/13 08:08:39;;;;;;;0.88;0.50;;;;;;;12.22;100.00;97903.94;5035960;28;20057;-79
2023/03/13 08:11:08;;;;;;;2.00;0.30;;;;;;;12.28;100.00;97886.69;5033203;28;20316;-79
2023/03/13 08:13:34;;;;;;;1.00;0.30;;;;;;;12.63;100.00;97880.41;5042620;28;20474;-78
2023/03/13 08:16:48;;;;;;;0.75;0.50;;;;;;;12.88;100.00;97880.09;5036386;28;20022;-80
2023/03/13 08:19:14;;;;;;;2.10;0.25;;;;;;;13.02;100.00;97870.63;5035027;28;20509;-76
2023/03/13 08:21:39;;;;;;;1.75;0.30;;;;;;;13.22;100.00;97862.03;5034679;28;20036;-75
2023/03/13 08:24:06;;;;;;;0.93;0.32;;;;;;;13.50;100.00;97842.19;5040580;28;20472;-75
2023/03/13 08:26:34;;;;;;;1.00;0.30;;;;;;;13.57;100.00;97845.56;5034152;28;20057;-76
2023/03/13 08:29:03;;;;;;;1.13;0.40;;;;;;;13.93;100.00;97850.75;5035174;28;20033;-76
2023/03/13 08:31:37;;;;;;;1.88;0.30;;;;;;;14.15;100.00;97856.25;5025866;28;20018;-77
2023/03/13 08:34:03;;;;;;;3.97;0.60;;;;;;;14.15;100.00;97835.31;5033523;28;20124;-76
2023/03/13 08:36:34;;;;;;;2.33;0.70;;;;;;;14.91;100.00;97861.91;5036068;28;20076;-76
2023/03/13 08:39:04;;;;;;;1.75;0.55;;;;;;;15.68;100.00;97863.50;5032263;28;20025;-78
2023/03/13 08:41:39;;;;;;;1.65;0.60;;;;;;;16.44;100.00;97863.25;5034776;28;20022;-77
2023/03/13 08:44:05;;;;;;;0.95;0.22;;;;;;;16.28;100.00;97869.72;5038883;28;20029;-77
2023/03/13 08:46:33;;;;;;;4.93;2.10;;;;;;;15.65;100.00;97852.31;5033963;28;20143;-77
2023/03/13 08:48:58;;;;;;;6.55;1.45;;;;;;;14.98;100.00;97858.97;5033807;28;20029;-79
2023/03/13 08:55:30;;;;;;;5.35;0.90;;;;;;;14.33;100.00;97831.50;4968256;29;20026;-79
2023/03/13 08:58:17;;;;;;;1.48;0.65;;;;;;;14.00;100.00;97783.41;4977679;28;20043;-80
2023/03/13 09:00:46;;;;;;;1.50;0.60;;;;;;;14.04;100.00;97762.78;4950510;28;20029;-80
2023/03/13 09:03:11;;;;;;;0.98;0.40;;;;;;;14.24;100.00;97825.63;5010019;28;20042;-78
2023/03/13 09:05:37;;;;;;;1.05;0.38;;;;;;;14.30;100.00;97812.91;5049889;28;20437;-75
2023/03/13 09:08:02;;;;;;;4.28;0.43;;;;;;;14.49;100.00;97867.91;5028364;28;20041;-75
2023/03/13 09:10:28;;;;;;;0.88;0.50;;;;;;;14.39;100.00;97851.44;5032970;28;20071;-76
2023/03/13 09:12:53;;;;;;;1.20;0.43;;;;;;;14.30;100.00;97823.00;5035696;28;20568;-80
2023/03/13 09:15:19;;;;;;;0.60;0.50;;;;;;;14.30;100.00;97858.34;5033505;28;20040;-76
2023/03/13 09:17:44;;;;;;;1.85;0.57;;;;;;;14.20;100.00;97840.84;5034557;28;20398;-75
2023/03/13 09:20:10;;;;;;;1.27;0.57;;;;;;;14.11;100.00;97853.19;5034967;28;20103;-80
2023/03/13 09:22:35;;;;;;;1.33;0.50;;;;;;;14.12;100.00;97841.25;5032124;28;20168;-80
2023/03/13 09:25:00;;;;;;;1.27;0.50;;;;;;;14.20;100.00;97834.53;5029879;28;20026;-75
2023/03/13 09:27:27;;;;;;;2.72;0.68;;;;;;;14.28;100.00;97839.59;5027830;28;20148;-75
2023/03/13 09:29:53;;;;;;;4.97;0.50;;;;;;;14.55;100.00;97833.44;5031698;28;20032;-75
2023/03/13 09:32:19;;;;;;;0.93;0.60;;;;;;;14.82;100.00;97842.47;5023153;28;20033;-76
2023/03/13 09:34:45;;;;;;;1.20;0.47;;;;;;;15.02;100.00;97852.78;5030392;28;20021;-75
2023/03/13 09:37:10;;;;;;;3.50;0.50;;;;;;;14.68;100.00;97838.50;5031922;28;20036;-75
2023/03/13 09:39:36;;;;;;;2.45;0.35;;;;;;;14.71;100.00;97872.56;5035470;28;20025;-75
2023/03/13 09:42:15;;;;;;;1.25;0.40;;;;;;;14.60;100.00;97877.06;5024263;28;20037;-75
2023/03/13 09:45:11;;;;;;;14.70;1.70;;;;;;;14.58;100.00;97877.28;5031818;28;20057;-75
2023/03/13 09:47:56;;;;;;;0.98;0.50;;;;;;;14.69;100.00;97859.19;5020106;28;20112;-74
2023/03/13 09:50:46;;;;;;;6.03;0.77;;;;;;;14.80;100.00;97868.31;5015749;28;20698;-75
2023/03/13 09:53:23;;;;;;;7.45;0.77;;;;;;;15.64;100.00;97850.66;5024714;28;20091;-73
2023/03/13 09:55:48;;;;;;;1.88;0.50;;;;;;;16.42;100.00;97846.31;5037750;28;20404;-75
2023/03/13 09:58:20;;;;;;;2.80;0.63;;;;;;;17.22;100.00;97837.13;5028813;28;20052;-73
2023/03/13 10:00:59;;;;;;;2.08;0.70;;;;;;;17.19;100.00;97834.94;5029317;28;20438;-74
2023/03/13 10:03:29;;;;;;;1.08;0.50;;;;;;;17.62;100.00;97832.78;5031744;28;20061;-75
2023/03/13 10:05:58;;;;;;;2.92;0.73;;;;;;;17.41;100.00;97815.53;5033198;28;20028;-74
2023/03/13 10:08:25;;;;;;;2.47;0.90;;;;;;;17.67;100.00;97814.47;5033975;28;20036;-75
2023/03/13 10:11:08;;;;;;;2.20;0.75;;;;;;;17.67;100.00;97810.91;5029205;28;20123;-74
2023/03/13 10:14:01;;;;;;;2.70;0.80;;;;;;;18.06;100.00;97811.19;5034075;28;20029;-75
2023/03/13 10:16:33;;;;;;;5.13;0.90;;;;;;;19.57;100.00;97802.81;5032269;28;20025;-75
2023/03/13 10:19:09;;;;;;;6.88;1.38;;;;;;;21.59;83.04;97796.41;5022642;28;20068;-73
2023/03/13 10:21:36;;;;;;;4.45;0.82;;;;;;;25.51;61.72;97790.16;5023302;28;20029;-74
2023/03/13 10:24:10;;;;;;;3.45;0.98;;;;;;;27.64;53.02;97784.72;5030997;28;20025;-74
2023/03/13 10:26:36;;;;;;;1.67;0.60;;;;;;;29.27;47.67;97773.97;5032934;28;20056;-76
2023/03/13 10:29:21;;;;;;;3.67;0.70;;;;;;;28.97;47.82;97773.41;5031840;28;20567;-74
2023/03/13 10:31:57;;;;;;;1.33;0.50;;;;;;;29.34;46.12;97772.56;5026908;28;20052;-76
2023/03/13 10:34:24;;;;;;;2.75;0.60;;;;;;;28.78;46.11;97756.50;5014542;28;20049;-75
2023/03/13 10:36:56;;;;;;;1.77;0.50;;;;;;;29.54;44.26;97754.03;5024952;28;20025;-76
2023/03/13 10:39:23;;;;;;;2.38;0.70;;;;;;;26.72;48.05;97757.75;5016912;28;20029;-74
2023/03/13 10:41:55;;;;;;;2.67;0.65;;;;;;;28.16;46.94;97753.66;5032623;28;20036;-74
2023/03/13 10:44:22;;;;;;;2.10;0.70;;;;;;;30.34;43.29;97758.69;5033187;28;20076;-75
2023/03/13 10:46:49;;;;;;;4.70;0.57;;;;;;;29.95;43.63;97735.25;5032855;28;20048;-74
2023/03/13 10:49:17;;;;;;;1.17;0.60;;;;;;;28.91;43.69;97758.09;5032273;28;20029;-76
2023/03/13 10:51:49;;;;;;;1.67;0.73;;;;;;;27.59;46.83;97745.19;5032458;28;20032;-74
2023/03/13 10:54:21;;;;;;;1.90;0.60;;;;;;;26.56;47.98;97748.38;5043363;28;20025;-75
2023/03/13 10:56:47;;;;;;;2.88;0.50;;;;;;;27.56;47.18;97743.13;5032728;28;20018;-76
2023/03/13 10:59:25;;;;;;;3.22;0.52;;;;;;;28.88;45.52;97739.31;5031542;28;20029;-76
2023/03/13 11:01:52;;;;;;;0.82;0.60;;;;;;;30.06;42.44;97733.59;5032585;28;20131;-75
2023/03/13 11:04:29;;;;;;;2.60;0.55;;;;;;;28.08;44.96;97734.28;5031188;28;20086;-76
2023/03/13 11:07:05;;;;;;;2.30;0.55;;;;;;;28.55;44.66;97743.03;5032160;28;20025;-77
2023/03/13 11:09:31;;;;;;;2.60;0.60;;;;;;;28.52;45.51;97732.59;5024669;28;20460;-74
2023/03/13 11:12:08;;;;;;;3.10;0.80;;;;;;;29.56;44.14;97732.19;5029995;28;20494;-76
2023/03/13 11:14:34;;;;;;;1.73;0.93;;;;;;;29.52;43.39;97742.44;5031547;28;20664;-76
2023/03/13 11:17:08;;;;;;;2.75;0.60;;;;;;;30.33;42.37;97729.94;5032431;28;20026;-75
2023/03/13 11:19:51;;;;;;;1.25;0.60;;;;;;;27.78;44.62;97736.38;5030957;28;20030;-76
2023/03/13 11:22:26;;;;;;;4.28;0.70;;;;;;;24.27;51.33;97727.72;5028525;28;20494;-75
2023/03/13 11:25:20;;;;;;;1.42;0.68;;;;;;;22.84;56.84;97714.69;5029019;28;20043;-77
2023/03/13 11:28:01;;;;;;;2.25;0.80;;;;;;;22.20;60.48;97712.72;5031432;28;20034;-76
2023/03/13 11:30:38;;;;;;;1.17;0.70;;;;;;;22.05;64.05;97704.72;5023926;28;20445;-75
2023/03/13 11:33:16;;;;;;;6.25;1.20;;;;;;;22.30;63.69;97684.97;5035852;28;20053;-75
2023/03/13 11:35:48;;;;;;;0.93;0.70;;;;;;;24.59;58.00;97704.41;5031134;28;20483;-76
2023/03/13 11:38:19;;;;;;;2.78;0.88;;;;;;;27.59;50.03;97681.31;5029317;28;20079;-75